Time;durP1;ratioP1;P1;durP2;ratioP2;P2;SDS_P1;SDS_P2;PMS_P1;PMS_P2;Temp;Humidity;BMP_temperature;BMP_pressure;BME280_temperature;BME280_humidity;BME280_pressure;Samples;Min_cycle;Max_cycle;Signal;HPM_P1;HPM_P2
2021/10/12 00:15:15;;;;;;;24.20;12.57;;;;;;;8.16;96.07;100553.14;21104603;82;99455;-87
2021/10/12 00:45:17;;;;;;;21.07;10.78;;;;;;;8.27;96.39;100537.75;21104915;82;215310;-86
2021/10/12 01:15:18;;;;;;;14.97;7.93;;;;;;;8.40;96.64;100520.00;21083340;81;184343;-87
2021/10/12 01:45:19;;;;;;;15.73;7.57;;;;;;;8.52;96.27;100500.69;21131665;81;129964;-86
2021/10/12 02:15:20;;;;;;;12.43;5.70;;;;;;;8.45;96.04;100472.31;21112775;81;105151;-87
2021/10/12 02:45:21;;;;;;;10.43;4.80;;;;;;;8.42;96.66;100449.15;21136455;81;99303;-86
2021/10/12 03:15:21;;;;;;;10.23;3.33;;;;;;;8.37;95.98;100430.24;21127874;81;208066;-86
2021/10/12 03:45:22;;;;;;;8.57;3.80;;;;;;;8.00;95.33;100420.02;21121043;81;99267;-85
2021/10/12 04:15:23;;;;;;;8.10;3.27;;;;;;;7.51;95.22;100392.91;21104078;81;98997;-86
2021/10/12 04:45:24;;;;;;;14.93;4.45;;;;;;;7.25;96.69;100388.02;21181892;81;188392;-86
2021/10/12 05:15:27;;;;;;;12.33;4.60;;;;;;;7.35;96.78;100347.78;21158259;81;155569;-86
2021/10/12 05:45:28;;;;;;;15.73;4.47;;;;;;;7.50;96.57;100356.55;21143460;82;103577;-84
2021/10/12 06:15:28;;;;;;;14.45;4.53;;;;;;;7.59;96.64;100338.53;21199363;80;99193;-85
2021/10/12 06:45:30;;;;;;;13.37;5.00;;;;;;;7.68;96.05;100362.41;21337087;80;106106;-84
2021/10/12 07:15:31;;;;;;;15.40;4.60;;;;;;;8.03;95.16;100358.45;21096244;80;99809;-85
2021/10/12 07:45:32;;;;;;;11.47;4.27;;;;;;;8.75;93.57;100319.06;20886457;83;99364;-86
2021/10/12 08:15:33;;;;;;;11.60;6.23;;;;;;;9.27;91.67;100312.20;21044954;81;102135;-86
2021/10/12 08:45:37;;;;;;;10.35;3.95;;;;;;;10.03;90.63;100275.10;21116702;82;99439;-84
2021/10/12 09:15:38;;;;;;;10.13;3.27;;;;;;;9.57;91.07;100284.75;21226713;80;99511;-84
2021/10/12 09:45:44;;;;;;;7.07;2.67;;;;;;;9.32;91.71;100247.95;21278509;81;123849;-82
2021/10/12 10:15:46;;;;;;;11.23;5.10;;;;;;;10.44;92.68;100201.85;21200341;81;190972;-84
2021/10/12 10:45:49;;;;;;;;;;;;;;;10.98;89.34;100173.50;21077385;82;99940;-83
2021/10/12 11:15:51;;;;;;;7.62;3.10;;;;;;;10.54;89.49;100153.00;21184723;81;85449;-84
2021/10/12 11:46:00;;;;;;;26.87;9.38;;;;;;;10.48;91.04;100113.23;21244387;81;99507;-84
2021/10/12 12:16:01;;;;;;;14.73;7.87;;;;;;;10.83;90.46;100095.55;21184572;82;99451;-84
2021/10/12 12:46:14;;;;;;;4.77;1.60;;;;;;;11.04;88.40;100057.67;21123103;81;145623;-84
2021/10/12 13:16:15;;;;;;;4.90;1.60;;;;;;;11.33;85.57;100033.94;21167587;82;161885;-86
2021/10/12 13:46:16;;;;;;;3.90;1.50;;;;;;;11.27;83.57;100013.47;21166886;81;350085;-86
2021/10/12 14:16:17;;;;;;;7.37;3.47;;;;;;;11.16;82.60;100012.66;21120307;82;99999;-86
2021/10/12 14:46:19;;;;;;;4.20;1.33;;;;;;;10.71;82.82;100048.30;21110045;81;182656;-84
2021/10/12 15:16:20;;;;;;;5.23;2.03;;;;;;;10.02;83.61;100061.23;21039556;81;254746;-84
2021/10/12 15:46:20;;;;;;;7.50;2.70;;;;;;;9.59;84.93;100053.81;20927117;82;130499;-84
2021/10/12 16:17:06;;;;;;;17.20;9.33;;;;;;;9.04;84.86;100069.92;21035481;82;99427;-84
2021/10/12 16:46:27;;;;;;;15.70;9.57;;;;;;;8.21;86.37;100075.09;21140645;82;134425;-82
2021/10/12 17:16:28;;;;;;;12.25;6.42;;;;;;;7.51;88.23;100108.14;21153061;81;104510;-82
2021/10/12 17:46:29;;;;;;;16.03;9.73;;;;;;;7.22;89.14;100133.41;21111019;81;99412;-81
2021/10/12 18:16:32;;;;;;;17.73;7.08;;;;;;;6.89;90.19;100138.59;21243801;81;99288;-82
2021/10/12 18:46:32;;;;;;;14.37;6.90;;;;;;;6.63;90.75;100166.56;21412540;80;99373;-81
2021/10/12 19:16:33;;;;;;;10.07;5.03;;;;;;;6.21;90.61;100190.16;21396626;81;99242;-81
2021/10/12 19:46:34;;;;;;;10.75;4.67;;;;;;;5.92;91.29;100202.90;21380993;80;99265;-82
2021/10/12 20:16:35;;;;;;;10.93;4.25;;;;;;;5.68;92.02;100211.19;21268263;81;99412;-83
2021/10/12 20:46:36;;;;;;;10.47;4.27;;;;;;;5.44;92.12;100235.88;21131978;81;99448;-83
2021/10/12 21:16:37;;;;;;;10.53;4.53;;;;;;;5.20;92.36;100269.27;21217187;80;2288365;-83
2021/10/12 21:46:37;;;;;;;14.17;6.77;;;;;;;5.04;92.55;100294.30;21389000;81;127638;-82
2021/10/12 22:16:38;;;;;;;20.57;8.57;;;;;;;4.84;92.98;100311.02;21301489;81;99389;-82
2021/10/12 22:46:39;;;;;;;13.40;6.10;;;;;;;4.77;93.42;100318.18;21102209;81;107800;-83
2021/10/12 23:16:40;;;;;;;17.10;5.80;;;;;;;4.65;93.23;100323.63;21120753;82;99576;-82
2021/10/12 23:46:41;;;;;;;10.28;4.55;;;;;;;4.33;93.08;100333.48;21100969;82;99061;-82
